createdAt,value
2019-04-28T00:00:41.150Z,100613.31
2019-04-28T00:03:12.841Z,100614.80
2019-04-28T00:05:44.565Z,100613.82
2019-04-28T00:08:16.310Z,100616.57
2019-04-28T00:10:49.348Z,100622.39
2019-04-28T00:13:21.165Z,100620.17
2019-04-28T00:15:55.654Z,100625.86
2019-04-28T00:18:27.386Z,100626.07
2019-04-28T00:21:01.000Z,100621.52
2019-04-28T00:23:51.222Z,100620.00
2019-04-28T00:26:31.069Z,100630.94
2019-04-28T00:29:03.227Z,100619.82
2019-04-28T00:31:35.320Z,100627.81
2019-04-28T00:34:07.223Z,100615.48
2019-04-28T00:36:41.225Z,100622.69
2019-04-28T00:39:13.539Z,100622.02
2019-04-28T00:41:45.193Z,100617.01
2019-04-28T00:44:17.601Z,100612.55
2019-04-28T00:46:51.198Z,100610.64
2019-04-28T00:49:42.342Z,100608.83
2019-04-28T00:52:14.470Z,100606.92
2019-04-28T00:54:47.831Z,100607.30
2019-04-28T00:57:21.139Z,100616.41
2019-04-28T00:59:57.939Z,100619.64
2019-04-28T01:02:28.219Z,100620.88
2019-04-28T01:05:01.645Z,100618.31
2019-04-28T01:07:33.377Z,100612.90
2019-04-28T01:10:08.209Z,100618.69
2019-04-28T01:12:41.379Z,100618.11
2019-04-28T01:15:15.591Z,100618.49
2019-04-28T01:17:50.217Z,100614.91
2019-04-28T01:20:24.063Z,100618.80
2019-04-28T01:22:55.727Z,100609.77
2019-04-28T01:25:27.756Z,100619.08
2019-04-28T01:28:00.415Z,100617.95
2019-04-28T01:30:37.445Z,100614.53
2019-04-28T01:33:30.870Z,100612.70
2019-04-28T01:36:02.704Z,100614.70
2019-04-28T01:38:34.457Z,100616.52
2019-04-28T01:41:06.159Z,100608.76
2019-04-28T01:43:38.317Z,100612.08
2019-04-28T01:46:10.211Z,100610.42
2019-04-28T01:48:43.516Z,100614.49
2019-04-28T01:51:15.145Z,100619.23
2019-04-28T01:53:46.899Z,100611.08
2019-04-28T01:56:20.350Z,100611.08
2019-04-28T01:58:51.986Z,100617.25
2019-04-28T02:01:23.717Z,100628.91
2019-04-28T02:03:55.477Z,100610.46
2019-04-28T02:06:27.208Z,100607.14
2019-04-28T02:09:01.723Z,100623.20
2019-04-28T02:11:35.055Z,100627.09
2019-04-28T02:14:06.818Z,100623.81
2019-04-28T02:16:40.418Z,100622.23
2019-04-28T02:19:11.900Z,100620.08
2019-04-28T02:22:03.444Z,100611.34
2019-04-28T02:24:36.270Z,100613.34
2019-04-28T02:27:08.077Z,100615.26
2019-04-28T02:29:41.672Z,100611.17
2019-04-28T02:32:13.281Z,100616.20
2019-04-28T02:34:45.633Z,100619.93
2019-04-28T02:37:17.467Z,100617.45
2019-04-28T02:39:50.579Z,100625.23
2019-04-28T02:42:22.523Z,100631.41
2019-04-28T02:44:54.271Z,100629.59
2019-04-28T02:47:26.009Z,100625.92
2019-04-28T02:50:02.520Z,100628.11
2019-04-28T02:52:52.158Z,100635.60
2019-04-28T02:55:24.202Z,100630.86
2019-04-28T02:57:55.829Z,100625.73
2019-04-28T03:00:27.745Z,100637.87
2019-04-28T03:03:01.332Z,100632.08
2019-04-28T03:05:33.823Z,100635.71
2019-04-28T03:08:05.648Z,100632.18
2019-04-28T03:10:37.403Z,100636.15
2019-04-28T03:13:10.841Z,100638.33
2019-04-28T03:15:43.713Z,100633.83
2019-04-28T03:18:15.442Z,100636.08
2019-04-28T03:20:47.210Z,100638.35
2019-04-28T03:23:20.727Z,100644.05
2019-04-28T03:25:53.908Z,100649.75
2019-04-28T03:28:26.638Z,100644.05
2019-04-28T03:31:22.084Z,100645.76
2019-04-28T03:33:43.413Z,100651.83
2019-04-28T03:36:15.072Z,100645.92
2019-04-28T03:38:43.652Z,100658.38
2019-04-28T03:41:15.388Z,100653.59
2019-04-28T03:43:47.129Z,100656.34
2019-04-28T03:46:22.975Z,100659.28
2019-04-28T03:48:54.622Z,100655.18
2019-04-28T03:51:26.492Z,100662.03
2019-04-28T03:54:00.599Z,100671.31
2019-04-28T03:56:31.491Z,100669.39
2019-04-28T03:59:03.228Z,100674.13
2019-04-28T04:01:52.046Z,100679.94
2019-04-28T04:04:11.318Z,100679.57
2019-04-28T04:06:44.075Z,100689.47
2019-04-28T04:09:15.829Z,100690.53
2019-04-28T04:12:05.666Z,100696.78
2019-04-28T04:14:41.138Z,100686.12
2019-04-28T04:17:17.495Z,100691.37
2019-04-28T04:19:50.387Z,100694.89
2019-04-28T04:22:22.565Z,100699.09
2019-04-28T04:24:54.304Z,100702.13
2019-04-28T04:27:26.261Z,100705.37
2019-04-28T04:29:57.778Z,100696.21
2019-04-28T04:32:30.554Z,100698.97
2019-04-28T04:35:03.699Z,100700.73
2019-04-28T04:37:35.556Z,100701.98
2019-04-28T04:40:07.762Z,100708.38
2019-04-28T04:42:40.261Z,100709.52
2019-04-28T04:45:12.690Z,100711.16
2019-04-28T04:47:44.447Z,100716.52
2019-04-28T04:50:16.173Z,100723.08
2019-04-28T04:52:50.229Z,100723.41
2019-04-28T04:55:22.189Z,100726.65
2019-04-28T04:57:53.931Z,100733.09
2019-04-28T05:00:31.279Z,100738.64
2019-04-28T05:03:21.274Z,100734.19
2019-04-28T05:05:53.164Z,100752.44
2019-04-28T05:08:26.373Z,100749.34
2019-04-28T05:10:59.974Z,100753.98
2019-04-28T05:13:31.558Z,100757.05
2019-04-28T05:16:03.279Z,100760.13
2019-04-28T05:18:35.038Z,100764.30
2019-04-28T05:21:06.772Z,100766.86
2019-04-28T05:23:49.308Z,100768.95
2019-04-28T05:26:21.364Z,100759.45
2019-04-28T05:28:59.191Z,100764.80
2019-04-28T05:31:31.026Z,100766.42
2019-04-28T05:34:04.093Z,100767.47
2019-04-28T05:36:41.250Z,100771.37
2019-04-28T05:39:10.501Z,100775.27
2019-04-28T05:41:42.370Z,100772.84
2019-04-28T05:44:14.122Z,100769.84
2019-04-28T05:46:45.854Z,100774.94
2019-04-28T05:49:19.486Z,100783.94
2019-04-28T05:51:52.887Z,100781.66
2019-04-28T05:54:24.298Z,100783.88
2019-04-28T05:56:59.698Z,100797.34
2019-04-28T05:59:45.584Z,100794.77
2019-04-28T06:02:22.044Z,100791.98
2019-04-28T06:04:53.898Z,100797.58
2019-04-28T06:07:34.093Z,100793.54
2019-04-28T06:10:08.236Z,100797.78
2019-04-28T06:12:41.209Z,100808.05
2019-04-28T06:15:13.355Z,100805.94
2019-04-28T06:17:45.121Z,100812.30
2019-04-28T06:20:20.131Z,100809.44
2019-04-28T06:22:52.001Z,100810.87
2019-04-28T06:25:23.767Z,100814.41
2019-04-28T06:27:55.509Z,100811.98
2019-04-28T06:30:27.263Z,100818.42
2019-04-28T06:33:07.704Z,100813.06
2019-04-28T06:35:32.876Z,100815.97
2019-04-28T06:38:05.363Z,100818.03
2019-04-28T06:40:37.036Z,100817.70
2019-04-28T06:43:08.768Z,100816.02
2019-04-28T06:45:40.531Z,100821.73
2019-04-28T06:48:12.260Z,100824.08
2019-04-28T06:50:43.827Z,100829.84
2019-04-28T06:53:15.468Z,100829.09
2019-04-28T06:55:47.352Z,100825.27
2019-04-28T06:58:19.093Z,100830.63
2019-04-28T07:00:50.848Z,100831.75
2019-04-28T07:03:23.486Z,100836.49
2019-04-28T07:05:55.227Z,100836.07
2019-04-28T07:08:29.321Z,100826.45
2019-04-28T07:11:01.467Z,100831.29
2019-04-28T07:13:33.006Z,100820.58
2019-04-28T07:16:05.696Z,100828.62
2019-04-28T07:18:37.406Z,100828.62
2019-04-28T07:21:29.000Z,100833.77
2019-04-28T07:24:00.913Z,100836.45
2019-04-28T07:26:33.970Z,100841.06
2019-04-28T07:29:05.657Z,100848.37
2019-04-28T07:31:37.412Z,100852.75
2019-04-28T07:34:10.310Z,100862.38
2019-04-28T07:36:42.170Z,100869.44
2019-04-28T07:39:14.774Z,100870.79
2019-04-28T07:41:46.709Z,100871.04
2019-04-28T07:44:18.345Z,100882.01
2019-04-28T07:46:50.163Z,100880.28
2019-04-28T07:49:25.171Z,100881.11
2019-04-28T07:52:18.119Z,100881.96
2019-04-28T07:54:54.045Z,100883.08
2019-04-28T07:57:28.128Z,100889.80
2019-04-28T07:59:59.993Z,100884.43
2019-04-28T08:02:31.650Z,100892.00
2019-04-28T08:05:04.254Z,100892.23
2019-04-28T08:07:36.075Z,100888.70
2019-04-28T08:10:08.788Z,100904.54
2019-04-28T08:12:40.331Z,100897.50
2019-04-28T08:15:13.851Z,100902.72
2019-04-28T08:17:46.931Z,100897.02
2019-04-28T08:20:23.369Z,100901.52
2019-04-28T08:22:55.001Z,100900.72
2019-04-28T08:25:32.167Z,100902.86
2019-04-28T08:28:04.196Z,100906.65
2019-04-28T08:30:36.643Z,100912.64
2019-04-28T08:33:29.575Z,100920.91
2019-04-28T08:36:06.152Z,100921.98
2019-04-28T08:38:41.633Z,100932.11
2019-04-28T08:41:17.055Z,100930.03
2019-04-28T08:43:51.137Z,100936.29
2019-04-28T08:46:23.211Z,100934.17
2019-04-28T08:48:54.971Z,100940.28
2019-04-28T08:51:27.171Z,100945.03
2019-04-28T08:54:01.896Z,100946.36
2019-04-28T08:56:35.113Z,100949.08
2019-04-28T08:59:06.883Z,100952.47
2019-04-28T09:01:39.785Z,100946.14
2019-04-28T09:04:15.569Z,100953.21
2019-04-28T09:06:49.865Z,100951.17
2019-04-28T09:09:30.322Z,100955.50
2019-04-28T09:12:01.999Z,100947.99
2019-04-28T09:14:33.745Z,100954.91
2019-04-28T09:17:05.574Z,100952.37
2019-04-28T09:19:37.219Z,100949.55
2019-04-28T09:22:08.997Z,100955.30
2019-04-28T09:24:40.737Z,100946.72
2019-04-28T09:27:12.668Z,100953.34
2019-04-28T09:29:44.554Z,100949.22
2019-04-28T09:32:16.350Z,100952.39
2019-04-28T09:34:49.624Z,100955.31
2019-04-28T09:37:21.236Z,100953.27
2019-04-28T09:39:57.445Z,100954.22
2019-04-28T09:42:29.684Z,100957.52
2019-04-28T09:45:04.141Z,100952.64
2019-04-28T09:47:36.358Z,100959.81
2019-04-28T09:50:08.912Z,100957.73
2019-04-28T09:52:40.657Z,100956.39
2019-04-28T09:55:13.113Z,100960.38
2019-04-28T09:57:50.859Z,100962.55
2019-04-28T10:00:23.018Z,100961.38
2019-04-28T10:02:54.762Z,100961.94
2019-04-28T10:05:26.545Z,100954.14
2019-04-28T10:08:00.245Z,100956.98
2019-04-28T10:10:31.776Z,100954.05
2019-04-28T10:13:05.156Z,100949.69
2019-04-28T10:15:41.409Z,100948.10
2019-04-28T10:18:13.634Z,100952.94
2019-04-28T10:20:45.209Z,100953.40
2019-04-28T10:23:21.707Z,100956.00
2019-04-28T10:25:53.458Z,100963.55
2019-04-28T10:28:25.293Z,100955.53
2019-04-28T10:30:56.971Z,100962.76
2019-04-28T10:33:31.943Z,100964.95
2019-04-28T10:36:06.449Z,100959.64
2019-04-28T10:38:41.804Z,100956.09
2019-04-28T10:41:24.469Z,100962.90
2019-04-28T10:43:58.343Z,100967.95
2019-04-28T10:46:30.832Z,100964.44
2019-04-28T10:49:02.364Z,100964.79
2019-04-28T10:51:34.150Z,100962.89
2019-04-28T10:54:05.957Z,100958.39
2019-04-28T10:56:37.893Z,100960.83
2019-04-28T10:59:09.755Z,100955.38
2019-04-28T11:01:45.200Z,100961.34
2019-04-28T11:04:35.813Z,100964.73
2019-04-28T11:07:09.832Z,100972.66
2019-04-28T11:09:44.237Z,100971.11
2019-04-28T11:12:34.075Z,100968.41
2019-04-28T11:15:04.669Z,100970.70
2019-04-28T11:17:36.572Z,100981.50
2019-04-28T11:20:09.249Z,100974.92
2019-04-28T11:22:42.622Z,100981.56
2019-04-28T11:25:14.547Z,100978.48
2019-04-28T11:27:46.282Z,100981.23
2019-04-28T11:30:19.635Z,100985.91
2019-04-28T11:33:00.739Z,100982.45
2019-04-28T11:35:34.015Z,100978.05
2019-04-28T11:38:05.918Z,100978.13
2019-04-28T11:40:39.906Z,100977.36
2019-04-28T11:43:17.426Z,100976.95
2019-04-28T11:45:53.243Z,100986.74
2019-04-28T11:48:27.875Z,100991.38
2019-04-28T11:51:01.390Z,100993.72
2019-04-28T11:53:35.121Z,100989.08
2019-04-28T11:56:06.998Z,100987.03
2019-04-28T11:58:38.787Z,100986.20
2019-04-28T12:01:12.129Z,100997.91
2019-04-28T12:03:54.080Z,100994.91
2019-04-28T12:06:27.677Z,100994.97
2019-04-28T12:09:05.448Z,100997.80
2019-04-28T12:11:47.834Z,100998.21
2019-04-28T12:14:24.495Z,101001.72
2019-04-28T12:17:19.820Z,101001.20
2019-04-28T12:19:55.916Z,100999.64
2019-04-28T12:22:44.166Z,100999.11
2019-04-28T12:25:10.197Z,101000.86
2019-04-28T12:27:46.123Z,101003.80
2019-04-28T12:30:23.649Z,101007.06
2019-04-28T12:33:02.744Z,100994.77
2019-04-28T12:35:48.026Z,100995.75
2019-04-28T12:38:18.138Z,101000.09
2019-04-28T12:40:59.612Z,101002.37
2019-04-28T12:43:31.452Z,100998.58
2019-04-28T12:46:05.786Z,101001.47
2019-04-28T12:48:46.630Z,101010.75
2019-04-28T12:51:20.000Z,101009.90
2019-04-28T12:54:04.027Z,101009.18
2019-04-28T12:56:37.518Z,101001.22
2019-04-28T12:59:19.637Z,101002.31
2019-04-28T13:02:11.803Z,100992.88
2019-04-28T13:04:48.028Z,101000.63
2019-04-28T13:07:23.926Z,100995.26
2019-04-28T13:09:55.908Z,100995.55
2019-04-28T13:12:32.203Z,101003.80
2019-04-28T13:15:07.906Z,100992.57
2019-04-28T13:17:41.362Z,101002.83
2019-04-28T13:20:20.823Z,100995.92
2019-04-28T13:22:55.122Z,101003.27
2019-04-28T13:25:28.300Z,101000.14
2019-04-28T13:28:03.135Z,101000.45
2019-04-28T13:30:34.888Z,100996.42
2019-04-28T13:33:07.806Z,100994.88
2019-04-28T13:35:39.576Z,101001.12
2019-04-28T13:38:11.547Z,100996.22
2019-04-28T13:40:47.645Z,100999.43
2019-04-28T13:43:22.437Z,100996.22
2019-04-28T13:45:54.318Z,100992.58
2019-04-28T13:48:26.170Z,100994.28
2019-04-28T13:50:57.825Z,100986.63
2019-04-28T13:53:29.573Z,100986.63
2019-04-28T13:56:03.388Z,100986.09
2019-04-28T13:58:36.607Z,100993.42
2019-04-28T14:01:19.054Z,100989.56
2019-04-28T14:04:01.549Z,100990.75
2019-04-28T14:06:40.753Z,100982.71
2019-04-28T14:09:19.430Z,100990.91
2019-04-28T14:11:53.280Z,100996.16
2019-04-28T14:14:27.846Z,100989.70
2019-04-28T14:17:07.585Z,100989.35
2019-04-28T14:19:44.084Z,100988.12
2019-04-28T14:22:19.532Z,100988.12
2019-04-28T14:25:00.098Z,100990.19
2019-04-28T14:27:36.913Z,100992.22
2019-04-28T14:30:13.692Z,100989.70
2019-04-28T14:32:45.746Z,100991.53
2019-04-28T14:35:22.951Z,100993.36
2019-04-28T14:38:07.739Z,101000.19
2019-04-28T14:40:44.012Z,100996.42
2019-04-28T14:43:21.943Z,100999.28
2019-04-28T14:45:54.471Z,100998.89
2019-04-28T14:48:36.809Z,100998.66
2019-04-28T14:51:11.656Z,100997.53
2019-04-28T14:53:45.223Z,100994.33
2019-04-28T14:56:17.110Z,101005.05
2019-04-28T14:58:48.925Z,100999.32
2019-04-28T15:01:37.607Z,101005.41
2019-04-28T15:04:13.976Z,100999.16
2019-04-28T15:06:55.523Z,101005.49
2019-04-28T15:09:39.335Z,101007.56
2019-04-28T15:12:11.023Z,101002.70
2019-04-28T15:14:42.736Z,101008.30
2019-04-28T15:17:14.500Z,101008.30
2019-04-28T15:19:46.235Z,101007.65
2019-04-28T15:22:18.018Z,101008.74
2019-04-28T15:24:49.746Z,101009.25
2019-04-28T15:27:21.505Z,101011.48
2019-04-28T15:29:53.326Z,101018.62
2019-04-28T15:32:25.538Z,101022.16
2019-04-28T15:34:57.422Z,101017.89
2019-04-28T15:37:29.208Z,101022.82
2019-04-28T15:40:00.961Z,101027.91
2019-04-28T15:42:34.098Z,101029.45
2019-04-28T15:45:08.069Z,101031.13
2019-04-28T15:47:42.348Z,101033.47
2019-04-28T15:50:19.323Z,101029.34
2019-04-28T15:52:51.176Z,101028.17
2019-04-28T15:55:27.784Z,101029.44
2019-04-28T15:58:01.140Z,101030.23
2019-04-28T16:00:35.164Z,101038.77
2019-04-28T16:03:10.448Z,101035.27
2019-04-28T16:05:42.204Z,101036.45
2019-04-28T16:08:14.954Z,101035.71
2019-04-28T16:10:46.654Z,101037.09
2019-04-28T16:13:18.412Z,101032.56
2019-04-28T16:15:50.147Z,101031.75
2019-04-28T16:18:21.897Z,101031.31
2019-04-28T16:20:53.645Z,101035.17
2019-04-28T16:23:25.291Z,101033.87
2019-04-28T16:25:56.906Z,101027.78
2019-04-28T16:28:29.751Z,101038.59
2019-04-28T16:31:01.807Z,101028.97
2019-04-28T16:33:33.345Z,101023.63
2019-04-28T16:36:05.156Z,101037.58
2019-04-28T16:38:36.988Z,101036.28
2019-04-28T16:41:11.519Z,101029.25
2019-04-28T16:43:44.534Z,101032.22
2019-04-28T16:46:16.096Z,101031.08
2019-04-28T16:48:48.928Z,101028.35
2019-04-28T16:51:20.798Z,101032.39
2019-04-28T16:53:52.700Z,101032.72
2019-04-28T16:56:26.131Z,101033.19
2019-04-28T16:58:59.717Z,101032.36
2019-04-28T17:01:39.463Z,101031.30
2019-04-28T17:04:11.354Z,101033.02
2019-04-28T17:06:42.983Z,101035.32
2019-04-28T17:09:16.552Z,101033.77
2019-04-28T17:11:48.274Z,101039.55
2019-04-28T17:14:20.846Z,101044.53
2019-04-28T17:16:52.652Z,101041.02
2019-04-28T17:19:24.469Z,101042.45
2019-04-28T17:21:56.194Z,101045.12
2019-04-28T17:24:27.783Z,101043.42
2019-04-28T17:26:59.685Z,101049.88
2019-04-28T17:29:31.606Z,101051.11
2019-04-28T17:32:03.171Z,101049.72
2019-04-28T17:34:34.993Z,101043.63
2019-04-28T17:37:08.527Z,101045.92
2019-04-28T17:39:40.803Z,101048.02
2019-04-28T17:42:13.383Z,101052.98
2019-04-28T17:44:45.305Z,101052.98
2019-04-28T17:47:18.810Z,101056.98
2019-04-28T17:49:50.339Z,101055.86
2019-04-28T17:52:21.948Z,101059.48
2019-04-28T17:54:53.471Z,101063.97
2019-04-28T17:57:26.534Z,101067.02
2019-04-28T18:00:00.904Z,101069.41
2019-04-28T18:02:41.573Z,101070.55
2019-04-28T18:05:15.148Z,101067.70
2019-04-28T18:07:49.343Z,101071.30
2019-04-28T18:10:22.132Z,101074.17
2019-04-28T18:13:00.867Z,101079.14
2019-04-28T18:15:35.206Z,101070.66
2019-04-28T18:18:11.732Z,101073.73
2019-04-28T18:20:43.447Z,101073.73
2019-04-28T18:23:15.253Z,101074.21
2019-04-28T18:25:48.011Z,101079.17
2019-04-28T18:28:21.041Z,101083.72
2019-04-28T18:30:54.235Z,101090.77
2019-04-28T18:33:31.039Z,101099.36
2019-04-28T18:36:04.351Z,101095.19
2019-04-28T18:38:38.721Z,101094.80
2019-04-28T18:41:28.336Z,101100.52
2019-04-28T18:44:10.301Z,101095.56
2019-04-28T18:46:42.182Z,101105.69
2019-04-28T18:49:15.625Z,101103.02
2019-04-28T18:51:48.153Z,101102.91
2019-04-28T18:54:19.918Z,101103.38
2019-04-28T18:56:52.520Z,101111.59
2019-04-28T18:59:24.411Z,101111.97
2019-04-28T19:01:59.651Z,101108.17
2019-04-28T19:04:32.209Z,101106.14
2019-04-28T19:07:05.649Z,101106.62
2019-04-28T19:09:54.410Z,101110.83
2019-04-28T19:12:28.763Z,101119.30
2019-04-28T19:15:08.094Z,101113.21
2019-04-28T19:17:47.130Z,101119.41
2019-04-28T19:20:18.996Z,101114.81
2019-04-28T19:22:50.755Z,101108.92
2019-04-28T19:25:22.514Z,101110.25
2019-04-28T19:27:54.299Z,101111.51
2019-04-28T19:30:26.125Z,101109.10
2019-04-28T19:32:58.120Z,101112.16
2019-04-28T19:35:29.839Z,101113.88
2019-04-28T19:38:01.557Z,101107.02
2019-04-28T19:40:33.319Z,101105.97
2019-04-28T19:43:05.149Z,101101.87
2019-04-28T19:45:38.597Z,101099.78
2019-04-28T19:48:12.518Z,101098.25
2019-04-28T19:50:46.443Z,101105.19
2019-04-28T19:53:18.060Z,101105.02
2019-04-28T19:55:56.372Z,101108.05
2019-04-28T19:58:47.080Z,101107.19
2019-04-28T20:01:27.082Z,101105.66
2019-04-28T20:04:00.253Z,101100.52
2019-04-28T20:06:39.002Z,101099.01
2019-04-28T20:09:11.639Z,101094.43
2019-04-28T20:11:45.106Z,101098.63
2019-04-28T20:14:21.506Z,101103.17
2019-04-28T20:16:56.480Z,101086.31
2019-04-28T20:19:36.403Z,101087.65
2019-04-28T20:22:35.961Z,101081.46
2019-04-28T20:24:58.233Z,101090.98
2019-04-28T20:27:33.638Z,101088.89
2019-04-28T20:30:07.861Z,101082.23
2019-04-28T20:32:49.545Z,101089.27
2019-04-28T20:35:23.229Z,101090.41
2019-04-28T20:38:00.682Z,101093.83
2019-04-28T20:40:46.290Z,101095.17
2019-04-28T20:43:28.463Z,101094.41
2019-04-28T20:46:04.661Z,101094.23
2019-04-28T20:48:40.360Z,101099.17
2019-04-28T20:51:19.784Z,101092.52
2019-04-28T20:53:56.172Z,101094.42
2019-04-28T20:56:35.511Z,101089.47
2019-04-28T20:59:07.475Z,101090.42
2019-04-28T21:01:43.876Z,101096.39
2019-04-28T21:04:24.705Z,101090.58
2019-04-28T21:06:57.999Z,101085.56
2019-04-28T21:09:30.995Z,101083.64
2019-04-28T21:12:02.738Z,101078.02
2019-04-28T21:14:34.493Z,101078.02
2019-04-28T21:17:06.231Z,101072.51
2019-04-28T21:19:38.073Z,101073.08
2019-04-28T21:22:09.837Z,101074.00
2019-04-28T21:24:41.585Z,101077.62
2019-04-28T21:27:13.310Z,101075.43
2019-04-28T21:29:45.075Z,101072.77
2019-04-28T21:32:16.801Z,101073.63
2019-04-28T21:34:48.567Z,101072.00
2019-04-28T21:37:20.297Z,101070.00
2019-04-28T21:39:52.175Z,101066.00
2019-04-28T21:42:25.456Z,101064.77
2019-04-28T21:45:05.374Z,101069.14
2019-04-28T21:47:38.887Z,101060.89
2019-04-28T21:50:10.521Z,101070.00
2019-04-28T21:52:42.412Z,101062.80
2019-04-28T21:55:14.066Z,101060.89
2019-04-28T21:57:47.317Z,101059.66
2019-04-28T22:00:26.076Z,101065.27
2019-04-28T22:03:15.744Z,101049.86
2019-04-28T22:05:47.505Z,101048.81
2019-04-28T22:08:19.255Z,101042.91
2019-04-28T22:10:51.026Z,101039.28
2019-04-28T22:13:22.759Z,101036.91
2019-04-28T22:15:54.503Z,101031.20
2019-04-28T22:18:26.237Z,101027.78
2019-04-28T22:20:58.468Z,101026.83
2019-04-28T22:23:34.656Z,101024.64
2019-04-28T22:26:06.283Z,101026.45
2019-04-28T22:28:37.917Z,101026.73
2019-04-28T22:31:10.755Z,101023.59
2019-04-28T22:33:42.380Z,101024.54
2019-04-28T22:36:14.127Z,101025.49
2019-04-28T22:38:45.887Z,101017.19
2019-04-28T22:41:17.625Z,101023.37
2019-04-28T22:43:49.405Z,101021.30
2019-04-28T22:46:21.145Z,101023.11
2019-04-28T22:48:54.534Z,101016.55
2019-04-28T22:51:26.171Z,101027.58
2019-04-28T22:53:59.587Z,101025.67
2019-04-28T22:56:35.782Z,101026.91
2019-04-28T22:59:21.834Z,101017.29
2019-04-28T23:02:10.064Z,101016.91
2019-04-28T23:04:49.100Z,101013.29
2019-04-28T23:07:20.738Z,101008.84
2019-04-28T23:09:52.373Z,101011.22
2019-04-28T23:12:24.228Z,101011.22
2019-04-28T23:14:56.850Z,100999.70
2019-04-28T23:17:28.769Z,100999.50
2019-04-28T23:20:00.707Z,100993.31
2019-04-28T23:22:47.123Z,100988.16
2019-04-28T23:25:16.697Z,100988.64
2019-04-28T23:27:48.539Z,100985.02
2019-04-28T23:30:45.327Z,100980.16
2019-04-28T23:33:17.046Z,100967.05
2019-04-28T23:35:48.687Z,100964.75
2019-04-28T23:38:20.432Z,100955.42
2019-04-28T23:41:02.757Z,100938.47
2019-04-28T23:43:34.398Z,100940.28
2019-04-28T23:46:06.240Z,100932.39
2019-04-28T23:48:37.983Z,100928.19
2019-04-28T23:51:18.564Z,100929.52
2019-04-28T23:54:06.962Z,100928.19
2019-04-28T23:56:40.841Z,100928.39
2019-04-28T23:59:12.710Z,100925.14
